sensor_id;sensor_type;location;lat;lon;timestamp;pressure;altitude;pressure_sealevel;temperature;humidity
54588;BME280;40484;50.198;19.576;2023-03-15T00:03:02;100296.23;;;9.32;57.56
54588;BME280;40484;50.198;19.576;2023-03-15T00:08:07;100300.21;;;9.12;57.97
54588;BME280;40484;50.198;19.576;2023-03-15T00:13:08;100317.05;;;9.02;58.29
54588;BME280;40484;50.198;19.576;2023-03-15T00:18:10;100351.69;;;8.65;58.94
54588;BME280;40484;50.198;19.576;2023-03-15T00:23:12;100381.71;;;8.85;58.15
54588;BME280;40484;50.198;19.576;2023-03-15T00:28:15;100398.42;;;8.24;58.93
54588;BME280;40484;50.198;19.576;2023-03-15T00:33:16;100409.75;;;8.14;58.09
54588;BME280;40484;50.198;19.576;2023-03-15T00:38:18;100438.07;;;7.93;58.48
54588;BME280;40484;50.198;19.576;2023-03-15T00:43:19;100458.91;;;7.82;58.30
54588;BME280;40484;50.198;19.576;2023-03-15T00:48:21;100487.19;;;8.12;56.61
54588;BME280;40484;50.198;19.576;2023-03-15T00:53:22;100521.45;;;7.59;56.88
54588;BME280;40484;50.198;19.576;2023-03-15T00:58:24;100526.84;;;7.59;55.55
54588;BME280;40484;50.198;19.576;2023-03-15T01:03:26;100538.58;;;7.31;55.55
54588;BME280;40484;50.198;19.576;2023-03-15T01:08:28;100549.37;;;7.11;55.53
54588;BME280;40484;50.198;19.576;2023-03-15T01:13:31;100549.50;;;7.02;54.94
54588;BME280;40484;50.198;19.576;2023-03-15T01:18:32;100537.85;;;6.55;55.73
54588;BME280;40484;50.198;19.576;2023-03-15T01:23:34;100554.03;;;5.96;55.67
54588;BME280;40484;50.198;19.576;2023-03-15T01:28:35;100567.12;;;6.17;54.45
54588;BME280;40484;50.198;19.576;2023-03-15T01:34:05;100582.06;;;6.24;53.93
54588;BME280;40484;50.198;19.576;2023-03-15T01:39:06;100591.78;;;6.57;53.58
54588;BME280;40484;50.198;19.576;2023-03-15T01:44:15;100616.31;;;6.89;53.26
54588;BME280;40484;50.198;19.576;2023-03-15T01:49:25;100622.62;;;6.99;53.10
54588;BME280;40484;50.198;19.576;2023-03-15T01:54:44;100641.00;;;6.63;53.70
54588;BME280;40484;50.198;19.576;2023-03-15T01:59:54;100648.23;;;6.48;53.36
54588;BME280;40484;50.198;19.576;2023-03-15T02:04:58;100659.53;;;6.15;54.15
54588;BME280;40484;50.198;19.576;2023-03-15T02:10:09;100658.63;;;5.97;54.87
54588;BME280;40484;50.198;19.576;2023-03-15T02:15:08;100650.13;;;6.21;54.57
54588;BME280;40484;50.198;19.576;2023-03-15T02:20:22;100670.72;;;6.18;54.78
54588;BME280;40484;50.198;19.576;2023-03-15T02:30:51;100678.62;;;6.08;55.62
54588;BME280;40484;50.198;19.576;2023-03-15T02:35:54;100677.19;;;5.96;55.67
54588;BME280;40484;50.198;19.576;2023-03-15T02:40:56;100668.82;;;5.78;55.65
54588;BME280;40484;50.198;19.576;2023-03-15T02:45:58;100686.84;;;5.94;55.43
54588;BME280;40484;50.198;19.576;2023-03-15T02:51:00;100680.44;;;5.45;55.84
54588;BME280;40484;50.198;19.576;2023-03-15T02:56:02;100695.35;;;5.61;55.15
54588;BME280;40484;50.198;19.576;2023-03-15T03:01:04;100718.17;;;5.25;55.65
54588;BME280;40484;50.198;19.576;2023-03-15T03:06:05;100727.97;;;5.53;55.24
54588;BME280;40484;50.198;19.576;2023-03-15T03:11:07;100730.81;;;5.61;54.91
54588;BME280;40484;50.198;19.576;2023-03-15T03:16:09;100749.34;;;5.60;54.40
54588;BME280;40484;50.198;19.576;2023-03-15T03:21:11;100754.17;;;5.64;54.44
54588;BME280;40484;50.198;19.576;2023-03-15T03:26:16;100765.63;;;5.72;54.01
54588;BME280;40484;50.198;19.576;2023-03-15T03:31:19;100769.69;;;5.67;53.57
54588;BME280;40484;50.198;19.576;2023-03-15T03:36:21;100778.28;;;5.75;53.10
54588;BME280;40484;50.198;19.576;2023-03-15T03:41:24;100781.87;;;5.69;53.11
54588;BME280;40484;50.198;19.576;2023-03-15T03:46:26;100781.88;;;5.80;52.59
54588;BME280;40484;50.198;19.576;2023-03-15T03:51:28;100800.41;;;5.68;52.53
54588;BME280;40484;50.198;19.576;2023-03-15T03:56:30;100802.66;;;5.55;52.34
54588;BME280;40484;50.198;19.576;2023-03-15T04:01:32;100798.16;;;5.48;51.82
54588;BME280;40484;50.198;19.576;2023-03-15T04:06:34;100784.84;;;5.61;51.06
54588;BME280;40484;50.198;19.576;2023-03-15T04:12:00;100799.93;;;5.75;50.67
54588;BME280;40484;50.198;19.576;2023-03-15T04:17:01;100798.48;;;5.54;51.14
54588;BME280;40484;50.198;19.576;2023-03-15T04:22:03;100800.95;;;5.73;50.64
54588;BME280;40484;50.198;19.576;2023-03-15T04:27:08;100817.48;;;5.86;50.19
54588;BME280;40484;50.198;19.576;2023-03-15T04:32:12;100821.84;;;5.78;50.25
54588;BME280;40484;50.198;19.576;2023-03-15T04:37:13;100824.48;;;5.35;51.22
54588;BME280;40484;50.198;19.576;2023-03-15T04:42:15;100826.33;;;5.54;50.56
54588;BME280;40484;50.198;19.576;2023-03-15T04:47:16;100831.37;;;5.09;51.32
54588;BME280;40484;50.198;19.576;2023-03-15T04:52:18;100833.06;;;5.50;50.76
54588;BME280;40484;50.198;19.576;2023-03-15T04:57:20;100830.68;;;5.25;51.22
54588;BME280;40484;50.198;19.576;2023-03-15T05:02:21;100841.34;;;5.52;50.78
54588;BME280;40484;50.198;19.576;2023-03-15T05:07:23;100848.45;;;5.77;50.33
54588;BME280;40484;50.198;19.576;2023-03-15T05:12:24;100860.28;;;6.02;49.89
54588;BME280;40484;50.198;19.576;2023-03-15T05:17:26;100862.28;;;6.20;49.70
54588;BME280;40484;50.198;19.576;2023-03-15T05:22:28;100872.62;;;6.46;49.43
54588;BME280;40484;50.198;19.576;2023-03-15T05:27:29;100892.77;;;6.18;50.10
54588;BME280;40484;50.198;19.576;2023-03-15T05:32:33;100879.05;;;6.13;50.43
54588;BME280;40484;50.198;19.576;2023-03-15T05:37:36;100899.53;;;6.16;50.13
54588;BME280;40484;50.198;19.576;2023-03-15T05:42:37;100904.22;;;6.12;50.21
54588;BME280;40484;50.198;19.576;2023-03-15T05:47:39;100906.34;;;5.94;50.54
54588;BME280;40484;50.198;19.576;2023-03-15T05:53:08;100922.91;;;5.78;50.29
54588;BME280;40484;50.198;19.576;2023-03-15T05:58:10;100909.64;;;5.75;50.24
54588;BME280;40484;50.198;19.576;2023-03-15T06:03:11;100922.44;;;5.76;50.40
54588;BME280;40484;50.198;19.576;2023-03-15T06:08:13;100930.66;;;5.74;50.54
54588;BME280;40484;50.198;19.576;2023-03-15T06:13:15;100951.63;;;5.98;50.09
54588;BME280;40484;50.198;19.576;2023-03-15T06:18:16;100975.20;;;5.83;49.99
54588;BME280;40484;50.198;19.576;2023-03-15T06:23:27;100997.00;;;5.70;50.48
54588;BME280;40484;50.198;19.576;2023-03-15T06:28:26;101009.66;;;5.56;50.92
54588;BME280;40484;50.198;19.576;2023-03-15T06:33:28;101012.05;;;5.70;50.06
54588;BME280;40484;50.198;19.576;2023-03-15T06:38:29;101019.69;;;5.89;49.98
54588;BME280;40484;50.198;19.576;2023-03-15T06:43:31;101037.02;;;5.62;49.80
54588;BME280;40484;50.198;19.576;2023-03-15T06:48:33;101046.16;;;5.56;49.91
54588;BME280;40484;50.198;19.576;2023-03-15T06:53:34;101056.95;;;5.59;49.54
54588;BME280;40484;50.198;19.576;2023-03-15T06:58:36;101053.39;;;5.66;49.38
54588;BME280;40484;50.198;19.576;2023-03-15T07:03:37;101061.00;;;5.57;49.66
54588;BME280;40484;50.198;19.576;2023-03-15T07:08:39;101067.03;;;5.58;49.86
54588;BME280;40484;50.198;19.576;2023-03-15T07:13:40;101071.08;;;5.82;49.19
54588;BME280;40484;50.198;19.576;2023-03-15T07:18:42;101080.56;;;6.37;48.59
54588;BME280;40484;50.198;19.576;2023-03-15T07:23:44;101076.91;;;6.29;48.21
54588;BME280;40484;50.198;19.576;2023-03-15T07:28:45;101066.41;;;6.21;48.19
54588;BME280;40484;50.198;19.576;2023-03-15T07:33:47;101075.02;;;5.99;48.35
54588;BME280;40484;50.198;19.576;2023-03-15T07:39:13;101082.98;;;6.04;48.20
54588;BME280;40484;50.198;19.576;2023-03-15T07:44:15;101083.74;;;6.21;47.51
54588;BME280;40484;50.198;19.576;2023-03-15T07:49:17;101089.05;;;6.09;47.96
54588;BME280;40484;50.198;19.576;2023-03-15T07:54:18;101093.58;;;6.08;47.92
54588;BME280;40484;50.198;19.576;2023-03-15T07:59:20;101096.66;;;5.98;48.30
54588;BME280;40484;50.198;19.576;2023-03-15T08:04:22;101109.68;;;5.99;48.86
54588;BME280;40484;50.198;19.576;2023-03-15T08:09:23;101118.68;;;6.14;48.85
54588;BME280;40484;50.198;19.576;2023-03-15T08:14:25;101134.30;;;6.50;47.46
54588;BME280;40484;50.198;19.576;2023-03-15T08:19:27;101134.59;;;6.25;46.99
54588;BME280;40484;50.198;19.576;2023-03-15T08:24:29;101139.96;;;6.35;46.25
54588;BME280;40484;50.198;19.576;2023-03-15T08:29:30;101150.55;;;6.46;45.16
54588;BME280;40484;50.198;19.576;2023-03-15T08:34:33;101162.09;;;6.35;46.01
54588;BME280;40484;50.198;19.576;2023-03-15T08:39:34;101157.91;;;6.44;45.60
54588;BME280;40484;50.198;19.576;2023-03-15T08:44:36;101161.23;;;6.34;45.72
54588;BME280;40484;50.198;19.576;2023-03-15T08:49:38;101162.30;;;6.46;46.44
54588;BME280;40484;50.198;19.576;2023-03-15T08:54:39;101162.63;;;6.72;45.67
54588;BME280;40484;50.198;19.576;2023-03-15T08:59:41;101166.22;;;6.65;44.94
54588;BME280;40484;50.198;19.576;2023-03-15T09:04:42;101174.36;;;6.50;45.77
54588;BME280;40484;50.198;19.576;2023-03-15T09:09:44;101179.23;;;6.65;44.25
54588;BME280;40484;50.198;19.576;2023-03-15T09:14:47;101182.19;;;6.57;45.24
54588;BME280;40484;50.198;19.576;2023-03-15T09:19:49;101195.41;;;6.68;45.61
54588;BME280;40484;50.198;19.576;2023-03-15T09:25:17;101196.08;;;6.80;44.64
54588;BME280;40484;50.198;19.576;2023-03-15T09:30:19;101192.37;;;6.70;44.86
54588;BME280;40484;50.198;19.576;2023-03-15T09:35:21;101194.60;;;6.59;44.28
54588;BME280;40484;50.198;19.576;2023-03-15T09:40:30;101201.49;;;6.92;43.81
54588;BME280;40484;50.198;19.576;2023-03-15T09:55:43;101195.09;;;7.23;42.07
54588;BME280;40484;50.198;19.576;2023-03-15T10:00:51;101208.83;;;6.68;41.48
54588;BME280;40484;50.198;19.576;2023-03-15T10:05:54;101217.76;;;6.69;42.33
54588;BME280;40484;50.198;19.576;2023-03-15T10:11:19;101230.16;;;7.20;42.28
54588;BME280;40484;50.198;19.576;2023-03-15T10:16:24;101241.31;;;6.79;41.45
54588;BME280;40484;50.198;19.576;2023-03-15T10:21:30;101238.93;;;6.75;41.68
54588;BME280;40484;50.198;19.576;2023-03-15T10:26:58;101252.04;;;6.41;41.04
54588;BME280;40484;50.198;19.576;2023-03-15T10:32:00;101253.22;;;6.48;41.48
54588;BME280;40484;50.198;19.576;2023-03-15T10:37:02;101249.45;;;6.73;42.23
54588;BME280;40484;50.198;19.576;2023-03-15T10:42:06;101257.23;;;6.79;41.05
54588;BME280;40484;50.198;19.576;2023-03-15T10:47:15;101245.44;;;6.88;41.38
54588;BME280;40484;50.198;19.576;2023-03-15T10:52:36;101248.37;;;6.72;40.92
54588;BME280;40484;50.198;19.576;2023-03-15T10:57:36;101252.31;;;6.91;40.94
54588;BME280;40484;50.198;19.576;2023-03-15T11:02:34;101252.30;;;7.10;40.65
54588;BME280;40484;50.198;19.576;2023-03-15T11:07:37;101266.51;;;7.08;40.82
54588;BME280;40484;50.198;19.576;2023-03-15T11:12:40;101267.14;;;7.09;40.83
54588;BME280;40484;50.198;19.576;2023-03-15T11:17:51;101266.63;;;7.44;39.47
54588;BME280;40484;50.198;19.576;2023-03-15T11:23:28;101260.29;;;7.48;39.97
54588;BME280;40484;50.198;19.576;2023-03-15T11:29:06;101242.43;;;7.67;39.16
54588;BME280;40484;50.198;19.576;2023-03-15T11:34:11;101245.49;;;7.76;38.84
54588;BME280;40484;50.198;19.576;2023-03-15T11:39:12;101244.20;;;7.85;39.17
54588;BME280;40484;50.198;19.576;2023-03-15T11:44:21;101246.84;;;7.95;39.13
54588;BME280;40484;50.198;19.576;2023-03-15T11:54:24;101256.41;;;7.73;40.11
54588;BME280;40484;50.198;19.576;2023-03-15T11:59:38;101265.34;;;7.64;39.82
54588;BME280;40484;50.198;19.576;2023-03-15T12:04:44;101270.24;;;7.83;39.78
54588;BME280;40484;50.198;19.576;2023-03-15T12:09:55;101263.19;;;7.82;39.03
54588;BME280;40484;50.198;19.576;2023-03-15T12:26:03;101272.02;;;7.78;38.15
54588;BME280;40484;50.198;19.576;2023-03-15T12:30:59;101272.91;;;7.80;38.88
54588;BME280;40484;50.198;19.576;2023-03-15T12:36:10;101274.59;;;7.95;38.26
54588;BME280;40484;50.198;19.576;2023-03-15T12:51:44;101283.41;;;7.79;39.02
54588;BME280;40484;50.198;19.576;2023-03-15T12:57:04;101270.54;;;7.76;38.54
54588;BME280;40484;50.198;19.576;2023-03-15T13:02:24;101286.74;;;7.92;38.87
54588;BME280;40484;50.198;19.576;2023-03-15T13:18:19;101296.91;;;7.81;38.99
54588;BME280;40484;50.198;19.576;2023-03-15T13:23:25;101305.20;;;7.61;39.42
54588;BME280;40484;50.198;19.576;2023-03-15T13:28:26;101290.61;;;7.87;39.60
54588;BME280;40484;50.198;19.576;2023-03-15T13:33:29;101302.62;;;7.66;39.19
54588;BME280;40484;50.198;19.576;2023-03-15T13:38:42;101311.09;;;7.76;39.49
54588;BME280;40484;50.198;19.576;2023-03-15T13:43:43;101320.88;;;7.68;39.32
54588;BME280;40484;50.198;19.576;2023-03-15T13:48:46;101326.65;;;7.57;39.35
54588;BME280;40484;50.198;19.576;2023-03-15T13:53:49;101321.02;;;7.87;39.76
54588;BME280;40484;50.198;19.576;2023-03-15T13:58:51;101331.77;;;7.86;39.24
54588;BME280;40484;50.198;19.576;2023-03-15T14:03:57;101343.69;;;7.62;38.89
54588;BME280;40484;50.198;19.576;2023-03-15T14:09:04;101359.59;;;7.70;38.30
54588;BME280;40484;50.198;19.576;2023-03-15T14:14:29;101372.38;;;7.78;38.83
54588;BME280;40484;50.198;19.576;2023-03-15T14:19:32;101362.41;;;7.76;38.99
54588;BME280;40484;50.198;19.576;2023-03-15T14:24:36;101380.05;;;7.69;39.15
54588;BME280;40484;50.198;19.576;2023-03-15T14:29:42;101370.34;;;7.40;39.41
54588;BME280;40484;50.198;19.576;2023-03-15T14:34:46;101374.73;;;7.51;39.73
54588;BME280;40484;50.198;19.576;2023-03-15T14:40:32;101369.76;;;7.50;39.10
54588;BME280;40484;50.198;19.576;2023-03-15T14:45:37;101376.33;;;7.39;39.28
54588;BME280;40484;50.198;19.576;2023-03-15T14:50:40;101379.42;;;7.19;39.15
54588;BME280;40484;50.198;19.576;2023-03-15T14:55:42;101372.11;;;7.45;39.32
54588;BME280;40484;50.198;19.576;2023-03-15T15:00:46;101381.58;;;7.34;39.54
54588;BME280;40484;50.198;19.576;2023-03-15T15:05:47;101390.23;;;7.22;39.15
54588;BME280;40484;50.198;19.576;2023-03-15T15:10:51;101396.16;;;7.10;39.38
54588;BME280;40484;50.198;19.576;2023-03-15T15:15:53;101397.96;;;7.16;39.44
54588;BME280;40484;50.198;19.576;2023-03-15T15:20:57;101406.12;;;7.30;38.98
54588;BME280;40484;50.198;19.576;2023-03-15T15:26:00;101408.94;;;7.36;39.20
54588;BME280;40484;50.198;19.576;2023-03-15T15:31:03;101413.70;;;7.46;39.19
54588;BME280;40484;50.198;19.576;2023-03-15T15:36:06;101406.32;;;7.58;39.18
54588;BME280;40484;50.198;19.576;2023-03-15T15:41:11;101410.71;;;7.31;39.14
54588;BME280;40484;50.198;19.576;2023-03-15T15:46:12;101414.30;;;7.26;39.21
54588;BME280;40484;50.198;19.576;2023-03-15T15:51:20;101414.56;;;7.19;39.15
54588;BME280;40484;50.198;19.576;2023-03-15T15:56:23;101411.68;;;7.29;39.27
54588;BME280;40484;50.198;19.576;2023-03-15T16:01:50;101420.97;;;7.56;38.96
54588;BME280;40484;50.198;19.576;2023-03-15T16:06:58;101423.94;;;7.59;39.07
54588;BME280;40484;50.198;19.576;2023-03-15T16:12:02;101421.95;;;7.44;39.26
54588;BME280;40484;50.198;19.576;2023-03-15T16:17:11;101425.26;;;7.54;39.10
54588;BME280;40484;50.198;19.576;2023-03-15T16:22:13;101431.66;;;7.54;39.47
54588;BME280;40484;50.198;19.576;2023-03-15T16:27:16;101435.96;;;7.61;39.39
54588;BME280;40484;50.198;19.576;2023-03-15T16:32:19;101448.35;;;7.70;39.36
54588;BME280;40484;50.198;19.576;2023-03-15T16:37:23;101454.89;;;7.75;39.41
54588;BME280;40484;50.198;19.576;2023-03-15T16:42:25;101458.13;;;7.83;39.18
54588;BME280;40484;50.198;19.576;2023-03-15T16:47:26;101445.05;;;8.01;39.01
54588;BME280;40484;50.198;19.576;2023-03-15T16:52:28;101456.02;;;8.42;38.84
54588;BME280;40484;50.198;19.576;2023-03-15T16:57:30;101457.29;;;8.65;38.50
54588;BME280;40484;50.198;19.576;2023-03-15T17:02:32;101461.38;;;8.86;38.23
54588;BME280;40484;50.198;19.576;2023-03-15T17:07:35;101476.84;;;8.93;38.32
54588;BME280;40484;50.198;19.576;2023-03-15T17:12:38;101477.82;;;9.03;38.12
54588;BME280;40484;50.198;19.576;2023-03-15T17:17:39;101475.91;;;9.01;38.19
54588;BME280;40484;50.198;19.576;2023-03-15T17:22:42;101492.90;;;8.76;38.06
54588;BME280;40484;50.198;19.576;2023-03-15T17:28:09;101501.85;;;8.44;38.37
54588;BME280;40484;50.198;19.576;2023-03-15T17:33:11;101507.16;;;8.30;38.57
54588;BME280;40484;50.198;19.576;2023-03-15T17:38:18;101507.81;;;8.22;38.41
54588;BME280;40484;50.198;19.576;2023-03-15T17:43:19;101520.45;;;8.12;38.39
54588;BME280;40484;50.198;19.576;2023-03-15T17:48:21;101517.83;;;8.26;38.51
54588;BME280;40484;50.198;19.576;2023-03-15T17:53:23;101524.50;;;8.48;39.04
54588;BME280;40484;50.198;19.576;2023-03-15T17:58:25;101530.45;;;8.55;39.17
54588;BME280;40484;50.198;19.576;2023-03-15T18:03:27;101530.02;;;8.65;39.22
54588;BME280;40484;50.198;19.576;2023-03-15T18:08:29;101527.55;;;8.67;39.50
54588;BME280;40484;50.198;19.576;2023-03-15T18:13:30;101531.89;;;8.67;39.66
54588;BME280;40484;50.198;19.576;2023-03-15T18:18:32;101538.41;;;8.60;39.90
54588;BME280;40484;50.198;19.576;2023-03-15T18:23:34;101525.18;;;8.51;40.22
54588;BME280;40484;50.198;19.576;2023-03-15T18:28:37;101530.56;;;8.39;40.53
54588;BME280;40484;50.198;19.576;2023-03-15T18:33:39;101534.25;;;8.38;40.65
54588;BME280;40484;50.198;19.576;2023-03-15T18:38:48;101536.42;;;8.33;40.70
54588;BME280;40484;50.198;19.576;2023-03-15T18:49:53;101539.33;;;8.04;39.93
54588;BME280;40484;50.198;19.576;2023-03-15T18:55:19;101553.95;;;8.02;39.58
54588;BME280;40484;50.198;19.576;2023-03-15T19:00:27;101555.19;;;7.91;39.49
54588;BME280;40484;50.198;19.576;2023-03-15T19:05:31;101557.18;;;7.96;39.43
54588;BME280;40484;50.198;19.576;2023-03-15T19:10:33;101564.15;;;8.03;39.24
54588;BME280;40484;50.198;19.576;2023-03-15T19:15:34;101568.28;;;8.12;39.19
54588;BME280;40484;50.198;19.576;2023-03-15T19:20:36;101563.95;;;7.94;39.08
54588;BME280;40484;50.198;19.576;2023-03-15T19:25:38;101568.51;;;7.76;39.21
54588;BME280;40484;50.198;19.576;2023-03-15T19:30:40;101566.69;;;7.78;39.45
54588;BME280;40484;50.198;19.576;2023-03-15T19:35:42;101574.79;;;7.97;39.71
54588;BME280;40484;50.198;19.576;2023-03-15T19:40:44;101571.27;;;7.98;39.88
54588;BME280;40484;50.198;19.576;2023-03-15T19:45:45;101578.03;;;8.04;39.94
54588;BME280;40484;50.198;19.576;2023-03-15T19:50:47;101584.11;;;7.99;40.23
54588;BME280;40484;50.198;19.576;2023-03-15T19:55:49;101586.50;;;7.93;40.49
54588;BME280;40484;50.198;19.576;2023-03-15T20:00:53;101593.55;;;7.86;40.75
54588;BME280;40484;50.198;19.576;2023-03-15T20:05:54;101595.26;;;7.79;40.79
54588;BME280;40484;50.198;19.576;2023-03-15T20:11:00;101603.75;;;7.78;40.88
54588;BME280;40484;50.198;19.576;2023-03-15T20:16:03;101604.93;;;7.77;40.85
54588;BME280;40484;50.198;19.576;2023-03-15T20:21:06;101613.41;;;7.76;40.69
54588;BME280;40484;50.198;19.576;2023-03-15T20:26:10;101619.02;;;7.59;40.46
54588;BME280;40484;50.198;19.576;2023-03-15T20:31:38;101628.55;;;7.20;40.78
54588;BME280;40484;50.198;19.576;2023-03-15T20:36:39;101631.91;;;7.14;40.94
54588;BME280;40484;50.198;19.576;2023-03-15T20:41:41;101631.25;;;7.05;41.12
54588;BME280;40484;50.198;19.576;2023-03-15T20:46:43;101633.13;;;6.97;41.19
54588;BME280;40484;50.198;19.576;2023-03-15T20:51:45;101623.70;;;6.92;41.25
54588;BME280;40484;50.198;19.576;2023-03-15T20:56:46;101640.43;;;6.93;41.34
54588;BME280;40484;50.198;19.576;2023-03-15T21:01:48;101637.64;;;6.67;41.84
54588;BME280;40484;50.198;19.576;2023-03-15T21:06:51;101649.74;;;6.42;42.46
54588;BME280;40484;50.198;19.576;2023-03-15T21:11:52;101645.85;;;6.22;43.05
54588;BME280;40484;50.198;19.576;2023-03-15T21:16:55;101650.30;;;6.00;43.68
54588;BME280;40484;50.198;19.576;2023-03-15T21:21:57;101666.70;;;5.91;44.00
54588;BME280;40484;50.198;19.576;2023-03-15T21:27:00;101672.04;;;5.77;44.44
54588;BME280;40484;50.198;19.576;2023-03-15T21:32:06;101668.96;;;5.72;44.76
54588;BME280;40484;50.198;19.576;2023-03-15T21:37:08;101674.13;;;5.60;45.19
54588;BME280;40484;50.198;19.576;2023-03-15T21:42:09;101671.97;;;5.63;45.27
54588;BME280;40484;50.198;19.576;2023-03-15T21:47:11;101679.03;;;5.51;45.68
54588;BME280;40484;50.198;19.576;2023-03-15T21:52:14;101683.93;;;5.39;45.95
54588;BME280;40484;50.198;19.576;2023-03-15T21:57:16;101689.85;;;5.13;46.71
54588;BME280;40484;50.198;19.576;2023-03-15T22:02:17;101690.29;;;5.26;46.50
54588;BME280;40484;50.198;19.576;2023-03-15T22:07:19;101693.65;;;5.16;46.84
54588;BME280;40484;50.198;19.576;2023-03-15T22:12:46;101693.48;;;5.35;46.51
54588;BME280;40484;50.198;19.576;2023-03-15T22:17:47;101703.87;;;5.42;46.43
54588;BME280;40484;50.198;19.576;2023-03-15T22:22:49;101713.28;;;5.41;46.47
54588;BME280;40484;50.198;19.576;2023-03-15T22:27:51;101710.81;;;5.41;46.53
54588;BME280;40484;50.198;19.576;2023-03-15T22:32:52;101711.31;;;5.37;46.63
54588;BME280;40484;50.198;19.576;2023-03-15T22:37:54;101714.83;;;5.32;46.76
54588;BME280;40484;50.198;19.576;2023-03-15T22:42:56;101716.10;;;5.27;46.93
54588;BME280;40484;50.198;19.576;2023-03-15T22:47:58;101728.85;;;5.09;47.33
54588;BME280;40484;50.198;19.576;2023-03-15T22:53:00;101734.20;;;5.03;47.46
54588;BME280;40484;50.198;19.576;2023-03-15T22:58:01;101733.10;;;4.84;48.14
54588;BME280;40484;50.198;19.576;2023-03-15T23:03:03;101734.36;;;4.96;47.84
54588;BME280;40484;50.198;19.576;2023-03-15T23:08:05;101742.52;;;4.77;48.37
54588;BME280;40484;50.198;19.576;2023-03-15T23:13:06;101745.74;;;4.76;48.53
54588;BME280;40484;50.198;19.576;2023-03-15T23:18:08;101748.13;;;4.84;48.30
54588;BME280;40484;50.198;19.576;2023-03-15T23:23:09;101751.38;;;4.72;48.49
54588;BME280;40484;50.198;19.576;2023-03-15T23:28:11;101756.96;;;4.52;48.98
54588;BME280;40484;50.198;19.576;2023-03-15T23:33:15;101760.55;;;4.49;49.03
54588;BME280;40484;50.198;19.576;2023-03-15T23:38:16;101771.33;;;4.50;49.13
54588;BME280;40484;50.198;19.576;2023-03-15T23:43:18;101775.99;;;4.38;49.33
54588;BME280;40484;50.198;19.576;2023-03-15T23:48:19;101779.76;;;4.34;49.60
54588;BME280;40484;50.198;19.576;2023-03-15T23:53:23;101778.70;;;4.39;49.46
54588;BME280;40484;50.198;19.576;2023-03-15T23:58:50;101780.62;;;4.51;49.05
